ePrivacy and GPDR Cookie Consent by Cookie Consent
EmailTwitter


Observations de surface / France / LFBO (07630)

Régions: Québec | Canada | États-Unis | Europe | France | UK | Ailleurs
Station
Affichage
Infos & localisation pour LFBO (07630) | Aide pour décoder les METARs

Observations prises le 2024-02-28 à 05H30 UTC à TOULOUSE/BLAGNAC, FR (LFBO)

Etat du ciel: couvert.

Température: 6.0 Celsius

Point de rosée: 3.0 Celsius

Humidité relative: 81%

Facteur vent 2.

Vents: Ouest-nord-ouest à 20 km/h ou 11 noeuds.

Pression au niveau moyen de la mer: 102.30 kilopascals.

Visibilité horizontale: 6.21 milles terrestres ou 9.94 kilomètres.

Hauteur du plafond: 1311 mètres ( 4300 pieds ).

Observation METAR:

LFBO 280530Z AUTO 29011KT 9999 OVC043 06/03 Q1023 NOSIG=